createdAt,value
2018-12-09T00:01:42.756Z,69.28
2018-12-09T00:04:15.072Z,68.70
2018-12-09T00:06:47.843Z,68.83
2018-12-09T00:09:18.160Z,68.72
2018-12-09T00:11:48.986Z,68.47
2018-12-09T00:14:19.318Z,68.77
2018-12-09T00:16:49.469Z,67.85
2018-12-09T00:19:19.791Z,67.88
2018-12-09T00:21:49.971Z,67.35
2018-12-09T00:24:20.229Z,67.42
2018-12-09T00:26:50.583Z,67.10
2018-12-09T00:29:20.915Z,67.01
2018-12-09T00:31:51.304Z,68.53
2018-12-09T00:34:21.589Z,68.49
2018-12-09T00:36:51.937Z,68.57
2018-12-09T00:39:22.157Z,67.63
2018-12-09T00:41:52.433Z,68.63
2018-12-09T00:44:22.608Z,68.73
2018-12-09T00:46:52.911Z,68.51
2018-12-09T00:49:23.131Z,68.25
2018-12-09T00:51:53.353Z,68.72
2018-12-09T00:54:23.460Z,68.31
2018-12-09T00:56:53.733Z,68.59
2018-12-09T00:59:24.624Z,68.24
2018-12-09T01:01:54.917Z,68.96
2018-12-09T01:04:25.313Z,70.11
2018-12-09T01:06:55.574Z,70.53
2018-12-09T01:09:25.708Z,70.73
2018-12-09T01:11:55.999Z,70.96
2018-12-09T01:14:26.256Z,71.34
2018-12-09T01:16:56.700Z,70.75
2018-12-09T01:19:26.995Z,70.34
2018-12-09T01:21:57.274Z,70.84
2018-12-09T01:24:27.519Z,71.25
2018-12-09T01:26:57.680Z,71.80
2018-12-09T01:29:27.982Z,72.50
2018-12-09T01:31:58.194Z,72.04
2018-12-09T01:34:28.497Z,71.75
2018-12-09T01:36:58.760Z,71.73
2018-12-09T01:39:29.039Z,72.82
2018-12-09T01:42:00.174Z,73.90
2018-12-09T01:44:30.715Z,73.86
2018-12-09T01:47:01.094Z,74.43
2018-12-09T01:49:31.428Z,75.04
2018-12-09T01:52:01.594Z,75.05
2018-12-09T01:54:31.893Z,75.92
2018-12-09T01:57:02.727Z,75.69
2018-12-09T01:59:32.962Z,75.92
2018-12-09T02:02:03.870Z,75.64
2018-12-09T02:04:34.162Z,75.94
2018-12-09T02:07:04.595Z,76.42
2018-12-09T02:09:34.827Z,75.60
2018-12-09T02:12:05.265Z,75.59
2018-12-09T02:14:35.670Z,75.05
2018-12-09T02:17:07.260Z,75.02
2018-12-09T02:19:38.202Z,74.42
2018-12-09T02:22:09.072Z,74.45
2018-12-09T02:24:39.228Z,74.81
2018-12-09T02:27:09.314Z,74.63
2018-12-09T02:29:39.513Z,74.43
2018-12-09T02:32:10.053Z,74.25
2018-12-09T02:34:46.920Z,74.54
2018-12-09T02:37:17.228Z,74.65
2018-12-09T02:39:47.457Z,74.93
2018-12-09T02:42:17.911Z,75.21
2018-12-09T02:44:49.306Z,74.81
2018-12-09T02:47:19.746Z,74.65
2018-12-09T02:49:50.191Z,75.03
2018-12-09T02:52:20.557Z,75.09
2018-12-09T02:54:50.900Z,75.02
2018-12-09T02:57:21.178Z,74.89
2018-12-09T02:59:51.418Z,73.50
2018-12-09T03:02:21.727Z,73.64
2018-12-09T03:04:52.036Z,74.09
2018-12-09T03:07:22.301Z,74.09
2018-12-09T03:09:52.445Z,74.33
2018-12-09T03:12:22.720Z,73.57
2018-12-09T03:14:53.035Z,74.92
2018-12-09T03:17:23.286Z,74.82
2018-12-09T03:19:53.537Z,75.14
2018-12-09T03:22:23.938Z,74.38
2018-12-09T03:24:54.011Z,74.48
2018-12-09T03:27:24.229Z,73.81
2018-12-09T03:29:54.559Z,74.30
2018-12-09T03:32:24.787Z,74.44
2018-12-09T03:34:55.350Z,74.15
2018-12-09T03:37:25.633Z,73.95
2018-12-09T03:39:55.779Z,73.85
2018-12-09T03:42:26.599Z,74.06
2018-12-09T03:44:56.833Z,73.90
2018-12-09T03:47:27.074Z,73.84
2018-12-09T03:49:57.274Z,74.42
2018-12-09T03:52:27.851Z,73.94
2018-12-09T03:54:58.049Z,74.59
2018-12-09T03:57:28.201Z,74.67
2018-12-09T03:59:58.480Z,75.24
2018-12-09T04:02:28.633Z,74.93
2018-12-09T04:04:59.351Z,75.23
2018-12-09T04:07:29.604Z,75.30
2018-12-09T04:09:59.850Z,74.90
2018-12-09T04:12:30.032Z,75.54
2018-12-09T04:15:00.317Z,74.96
2018-12-09T04:17:30.519Z,74.88
2018-12-09T04:20:00.788Z,74.55
2018-12-09T04:22:31.057Z,74.49
2018-12-09T04:25:01.688Z,73.29
2018-12-09T04:27:31.831Z,74.37
2018-12-09T04:30:02.013Z,73.82
2018-12-09T04:32:33.275Z,74.73
2018-12-09T04:35:03.585Z,75.01
2018-12-09T04:37:34.219Z,74.81
2018-12-09T04:40:04.618Z,75.16
2018-12-09T04:42:34.801Z,75.46
2018-12-09T04:45:05.325Z,74.21
2018-12-09T04:47:36.095Z,74.66
2018-12-09T04:50:07.455Z,74.54
2018-12-09T04:52:37.858Z,74.97
2018-12-09T04:55:08.255Z,75.66
2018-12-09T04:57:40.324Z,74.74
2018-12-09T05:00:21.536Z,74.42
2018-12-09T05:02:52.355Z,73.91
2018-12-09T05:05:22.515Z,73.55
2018-12-09T05:07:52.737Z,74.26
2018-12-09T05:10:22.915Z,73.74
2018-12-09T05:12:53.204Z,73.76
2018-12-09T05:15:23.452Z,74.32
2018-12-09T05:17:53.690Z,73.00
2018-12-09T05:20:24.965Z,72.30
2018-12-09T05:22:55.032Z,71.97
2018-12-09T05:25:25.231Z,73.32
2018-12-09T05:27:55.317Z,73.01
2018-12-09T05:30:25.669Z,72.86
2018-12-09T05:32:56.006Z,73.12
2018-12-09T05:35:26.198Z,72.95
2018-12-09T05:37:56.521Z,71.81
2018-12-09T05:40:26.808Z,71.85
2018-12-09T05:42:56.993Z,72.60
2018-12-09T05:45:27.596Z,72.41
2018-12-09T05:47:57.702Z,71.37
2018-12-09T05:50:27.977Z,71.42
2018-12-09T05:52:58.172Z,71.42
2018-12-09T05:55:28.359Z,71.93
2018-12-09T05:57:58.596Z,71.28
2018-12-09T06:00:28.828Z,70.63
2018-12-09T06:02:59.116Z,71.29
2018-12-09T06:05:29.442Z,71.27
2018-12-09T06:07:59.680Z,71.16
2018-12-09T06:10:29.845Z,70.11
2018-12-09T06:13:00.136Z,70.30
2018-12-09T06:15:31.028Z,70.50
2018-12-09T06:18:02.617Z,70.24
2018-12-09T06:20:33.249Z,70.78
2018-12-09T06:23:03.368Z,70.93
2018-12-09T06:25:33.617Z,70.29
2018-12-09T06:28:04.324Z,71.11
2018-12-09T06:30:34.711Z,70.82
2018-12-09T06:33:04.980Z,71.12
2018-12-09T06:35:35.253Z,70.84
2018-12-09T06:38:05.635Z,70.42
2018-12-09T06:40:35.932Z,70.25
2018-12-09T06:43:06.184Z,70.24
2018-12-09T06:45:36.449Z,70.43
2018-12-09T06:48:06.677Z,70.87
2018-12-09T06:50:36.951Z,69.85
2018-12-09T06:53:07.211Z,69.94
2018-12-09T06:55:37.390Z,69.64
2018-12-09T06:58:07.702Z,69.01
2018-12-09T07:00:38.321Z,68.88
2018-12-09T07:03:09.509Z,68.67
2018-12-09T07:05:39.935Z,67.89
2018-12-09T07:08:10.243Z,67.21
2018-12-09T07:10:40.606Z,66.91
2018-12-09T07:13:10.867Z,64.41
2018-12-09T07:15:41.065Z,63.53
2018-12-09T07:18:11.390Z,64.03
2018-12-09T07:20:41.629Z,65.02
2018-12-09T07:23:11.963Z,65.00
2018-12-09T07:25:42.107Z,64.88
2018-12-09T07:28:12.342Z,65.55
2018-12-09T07:30:42.599Z,66.42
2018-12-09T07:33:13.323Z,67.18
2018-12-09T07:35:43.567Z,67.16
2018-12-09T07:38:13.867Z,66.62
2018-12-09T07:40:44.109Z,66.55
2018-12-09T07:43:14.252Z,66.90
2018-12-09T07:45:44.596Z,66.86
2018-12-09T07:48:14.761Z,67.43
2018-12-09T07:50:45.218Z,66.57
2018-12-09T07:53:15.510Z,65.52
2018-12-09T07:55:45.846Z,64.77
2018-12-09T07:58:16.013Z,64.59
2018-12-09T08:00:46.294Z,63.95
2018-12-09T08:03:16.507Z,64.94
2018-12-09T08:05:46.745Z,64.62
2018-12-09T08:08:17.120Z,64.27
2018-12-09T08:10:47.649Z,64.64
2018-12-09T08:13:17.864Z,63.62
2018-12-09T08:15:48.179Z,62.89
2018-12-09T08:18:19.282Z,62.79
2018-12-09T08:20:49.524Z,61.76
2018-12-09T08:23:20.778Z,60.61
2018-12-09T08:25:51.056Z,59.48
2018-12-09T08:28:21.125Z,58.89
2018-12-09T08:30:51.332Z,59.13
2018-12-09T08:33:21.618Z,57.78
2018-12-09T08:35:51.858Z,57.50
2018-12-09T08:38:22.073Z,56.81
2018-12-09T08:40:52.327Z,57.37
2018-12-09T08:43:22.597Z,57.52
2018-12-09T08:45:53.162Z,57.47
2018-12-09T08:48:23.318Z,56.86
2018-12-09T08:50:53.674Z,57.12
2018-12-09T08:53:24.039Z,59.25
2018-12-09T08:55:54.255Z,59.31
2018-12-09T08:58:24.820Z,60.79
2018-12-09T09:00:55.047Z,60.53
2018-12-09T09:03:25.397Z,60.94
2018-12-09T09:05:55.750Z,60.38
2018-12-09T09:08:26.193Z,60.22
2018-12-09T09:10:56.420Z,59.57
2018-12-09T09:13:26.778Z,60.50
2018-12-09T09:15:57.214Z,59.77
2018-12-09T09:18:27.454Z,61.12
2018-12-09T09:20:57.822Z,59.46
2018-12-09T09:23:28.241Z,60.10
2018-12-09T09:25:58.609Z,62.36
2018-12-09T09:28:28.937Z,60.99
2018-12-09T09:30:59.293Z,61.65
2018-12-09T09:33:29.585Z,60.51
2018-12-09T09:35:59.848Z,60.03
2018-12-09T09:38:30.308Z,60.38
2018-12-09T09:41:00.803Z,60.57
2018-12-09T09:43:31.050Z,60.10
2018-12-09T09:46:01.172Z,59.20
2018-12-09T09:48:31.429Z,60.06
2018-12-09T09:51:01.864Z,60.11
2018-12-09T09:53:32.267Z,59.89
2018-12-09T09:56:02.637Z,60.65
2018-12-09T09:58:33.033Z,59.88
2018-12-09T10:01:03.207Z,58.62
2018-12-09T10:03:33.378Z,58.25
2018-12-09T10:06:03.803Z,57.83
2018-12-09T10:08:35.085Z,55.57
2018-12-09T10:11:05.414Z,55.13
2018-12-09T10:13:35.577Z,53.77
2018-12-09T10:16:05.896Z,52.52
2018-12-09T10:18:36.055Z,53.02
2018-12-09T10:21:07.003Z,52.41
2018-12-09T10:23:37.322Z,51.65
2018-12-09T10:26:07.609Z,52.14
2018-12-09T10:28:37.935Z,51.61
2018-12-09T10:31:08.394Z,52.56
2018-12-09T10:33:38.511Z,51.63
2018-12-09T10:36:08.717Z,51.63
2018-12-09T10:38:38.987Z,51.26
2018-12-09T10:41:09.211Z,52.22
2018-12-09T10:43:40.238Z,53.19
2018-12-09T10:46:10.465Z,52.28
2018-12-09T10:48:40.704Z,50.87
2018-12-09T10:51:11.013Z,50.16
2018-12-09T10:53:41.372Z,51.64
2018-12-09T10:56:11.783Z,51.21
2018-12-09T10:58:42.070Z,51.00
2018-12-09T11:01:17.633Z,50.93
2018-12-09T11:03:48.286Z,50.59
2018-12-09T11:06:19.758Z,50.28
2018-12-09T11:08:50.057Z,49.79
2018-12-09T11:11:20.482Z,49.93
2018-12-09T11:13:57.782Z,49.17
2018-12-09T11:16:23.950Z,50.02
2018-12-09T11:18:54.372Z,50.95
2018-12-09T11:21:30.619Z,51.80
2018-12-09T11:23:56.879Z,53.28
2018-12-09T11:26:27.152Z,51.85
2018-12-09T11:28:57.285Z,53.39
2018-12-09T11:31:28.572Z,53.17
2018-12-09T11:33:58.961Z,53.01
2018-12-09T11:36:29.279Z,53.02
2018-12-09T11:38:59.541Z,53.75
2018-12-09T11:41:29.796Z,54.65
2018-12-09T11:44:00.041Z,55.11
2018-12-09T11:46:30.189Z,56.37
2018-12-09T11:49:00.497Z,55.28
2018-12-09T11:51:30.786Z,56.71
2018-12-09T11:54:01.214Z,56.00
2018-12-09T11:56:31.381Z,54.01
2018-12-09T11:59:01.484Z,52.36
2018-12-09T12:01:31.797Z,51.42
2018-12-09T12:04:02.688Z,51.17
2018-12-09T12:06:33.086Z,51.20
2018-12-09T12:09:04.713Z,51.11
2018-12-09T12:11:36.212Z,51.10
2018-12-09T12:14:06.406Z,50.07
2018-12-09T12:16:36.761Z,51.18
2018-12-09T12:19:07.057Z,51.49
2018-12-09T12:21:37.388Z,51.69
2018-12-09T12:24:07.424Z,51.97
2018-12-09T12:26:37.777Z,52.56
2018-12-09T12:29:08.642Z,52.58
2018-12-09T12:31:38.990Z,52.95
2018-12-09T12:34:09.350Z,52.95
2018-12-09T12:36:39.653Z,52.96
2018-12-09T12:39:10.000Z,52.96
2018-12-09T12:41:40.376Z,52.96
2018-12-09T12:44:10.813Z,52.58
2018-12-09T12:46:41.253Z,52.73
2018-12-09T12:49:12.200Z,52.03
2018-12-09T12:51:43.285Z,51.70
2018-12-09T12:54:13.876Z,52.01
2018-12-09T12:56:44.253Z,51.62
2018-12-09T12:59:14.474Z,51.53
2018-12-09T13:01:44.787Z,51.28
2018-12-09T13:04:15.017Z,50.77
2018-12-09T13:06:45.482Z,51.11
2018-12-09T13:09:15.894Z,52.26
2018-12-09T13:11:46.199Z,52.57
2018-12-09T13:14:16.718Z,52.40
2018-12-09T13:16:47.167Z,52.49
2018-12-09T13:19:17.646Z,53.59
2018-12-09T13:21:47.900Z,53.66
2018-12-09T13:24:18.359Z,53.73
2018-12-09T13:26:48.644Z,52.88
2018-12-09T13:29:19.127Z,52.53
2018-12-09T13:31:49.391Z,52.69
2018-12-09T13:34:20.351Z,53.03
2018-12-09T13:36:50.693Z,52.11
2018-12-09T13:39:21.348Z,53.58
2018-12-09T13:41:51.679Z,53.96
2018-12-09T13:44:22.632Z,53.75
2018-12-09T13:46:52.765Z,53.56
2018-12-09T13:49:23.033Z,54.98
2018-12-09T13:51:53.426Z,56.07
2018-12-09T13:54:23.539Z,56.18
2018-12-09T13:56:54.293Z,58.16
2018-12-09T13:59:24.723Z,58.34
2018-12-09T14:01:55.038Z,58.77
2018-12-09T14:04:25.595Z,58.82
2018-12-09T14:06:56.079Z,58.85
2018-12-09T14:09:26.522Z,58.97
2018-12-09T14:11:56.866Z,59.00
2018-12-09T14:14:27.069Z,59.84
2018-12-09T14:16:57.261Z,59.36
2018-12-09T14:19:27.730Z,59.98
2018-12-09T14:21:58.067Z,60.29
2018-12-09T14:24:28.641Z,60.03
2018-12-09T14:26:59.023Z,60.51
2018-12-09T14:29:29.491Z,62.30
2018-12-09T14:31:59.907Z,62.16
2018-12-09T14:34:30.245Z,62.46
2018-12-09T14:37:01.242Z,62.82
2018-12-09T14:39:31.534Z,63.67
2018-12-09T14:42:02.900Z,63.54
2018-12-09T14:44:33.507Z,64.00
2018-12-09T14:47:03.936Z,64.07
2018-12-09T14:49:34.481Z,63.94
2018-12-09T14:52:04.943Z,64.03
2018-12-09T14:54:36.193Z,64.31
2018-12-09T14:57:06.724Z,64.85
2018-12-09T14:59:37.055Z,64.82
2018-12-09T15:02:07.561Z,65.47
2018-12-09T15:04:37.940Z,66.09
2018-12-09T15:07:08.373Z,66.28
2018-12-09T15:09:38.619Z,66.69
2018-12-09T15:12:10.207Z,67.16
2018-12-09T15:14:40.574Z,67.21
2018-12-09T15:17:11.488Z,67.66
2018-12-09T15:19:41.675Z,67.75
2018-12-09T15:22:12.103Z,67.94
2018-12-09T15:24:42.419Z,68.23
2018-12-09T15:27:12.719Z,69.02
2018-12-09T15:29:43.115Z,69.27
2018-12-09T15:32:14.145Z,69.24
2018-12-09T15:34:44.543Z,69.62
2018-12-09T15:37:15.946Z,70.01
2018-12-09T15:39:46.270Z,70.18
2018-12-09T15:42:16.493Z,69.78
2018-12-09T15:44:46.585Z,69.66
2018-12-09T15:47:17.029Z,69.15
2018-12-09T15:49:47.396Z,68.85
2018-12-09T15:52:17.656Z,69.08
2018-12-09T15:54:47.912Z,69.20
2018-12-09T15:57:18.084Z,69.75
2018-12-09T15:59:48.230Z,70.96
2018-12-09T16:02:18.349Z,71.36
2018-12-09T16:04:49.667Z,71.43
2018-12-09T16:07:20.089Z,71.35
2018-12-09T16:09:50.397Z,71.12
2018-12-09T16:12:21.756Z,71.34
2018-12-09T16:14:52.016Z,71.84
2018-12-09T16:17:22.288Z,71.41
2018-12-09T16:19:52.756Z,71.24
2018-12-09T16:22:23.012Z,71.01
2018-12-09T16:24:53.221Z,71.60
2018-12-09T16:27:23.534Z,72.68
2018-12-09T16:29:53.957Z,72.87
2018-12-09T16:32:24.146Z,72.38
2018-12-09T16:34:54.579Z,71.66
2018-12-09T16:37:25.282Z,71.50
2018-12-09T16:39:55.682Z,71.12
2018-12-09T16:42:25.815Z,71.59
2018-12-09T16:44:56.336Z,71.99
2018-12-09T16:47:26.550Z,71.46
2018-12-09T16:49:57.784Z,72.03
2018-12-09T16:52:28.123Z,72.38
2018-12-09T16:54:58.567Z,73.43
2018-12-09T16:57:28.748Z,73.63
2018-12-09T16:59:59.107Z,74.18
2018-12-09T17:02:29.298Z,74.11
2018-12-09T17:04:59.725Z,74.40
2018-12-09T17:07:30.087Z,74.02
2018-12-09T17:10:00.441Z,73.46
2018-12-09T17:12:31.037Z,73.10
2018-12-09T17:15:01.357Z,72.70
2018-12-09T17:17:31.822Z,73.00
2018-12-09T17:20:06.193Z,72.52
2018-12-09T17:22:34.727Z,72.29
2018-12-09T17:25:05.409Z,72.11
2018-12-09T17:27:35.811Z,72.35
2018-12-09T17:30:07.730Z,72.21
2018-12-09T17:32:38.803Z,71.84
2018-12-09T17:35:09.125Z,71.37
2018-12-09T17:37:39.790Z,71.62
2018-12-09T17:40:10.078Z,71.65
2018-12-09T17:42:40.550Z,72.58
2018-12-09T17:45:10.825Z,72.22
2018-12-09T17:47:40.971Z,72.38
2018-12-09T17:50:11.135Z,72.11
2018-12-09T17:52:41.440Z,72.17
2018-12-09T17:55:11.643Z,72.73
2018-12-09T17:57:42.019Z,73.06
2018-12-09T18:00:12.339Z,73.58
2018-12-09T18:02:42.560Z,73.18
2018-12-09T18:05:12.904Z,72.63
2018-12-09T18:07:43.279Z,72.45
2018-12-09T18:10:13.501Z,72.71
2018-12-09T18:12:47.945Z,72.50
2018-12-09T18:15:20.064Z,72.74
2018-12-09T18:17:50.674Z,73.36
2018-12-09T18:20:21.094Z,73.06
2018-12-09T18:22:51.477Z,72.57
2018-12-09T18:25:21.755Z,73.02
2018-12-09T18:27:52.260Z,72.43
2018-12-09T18:30:23.548Z,72.71
2018-12-09T18:32:53.759Z,72.85
2018-12-09T18:35:24.082Z,72.49
2018-12-09T18:37:55.708Z,72.79
2018-12-09T18:40:26.390Z,72.75
2018-12-09T18:42:58.224Z,72.53
2018-12-09T18:45:29.373Z,71.90
2018-12-09T18:47:59.750Z,72.81
2018-12-09T18:50:30.006Z,72.48
2018-12-09T18:53:00.379Z,71.87
2018-12-09T18:55:30.808Z,71.33
2018-12-09T18:58:01.145Z,71.97
2018-12-09T19:00:31.484Z,73.21
2018-12-09T19:03:01.828Z,73.25
2018-12-09T19:05:32.164Z,73.23
2018-12-09T19:08:02.764Z,73.11
2018-12-09T19:10:33.446Z,72.83
2018-12-09T19:13:04.322Z,72.91
2018-12-09T19:15:35.274Z,72.95
2018-12-09T19:18:05.592Z,72.08
2018-12-09T19:20:35.943Z,71.49
2018-12-09T19:23:06.301Z,71.42
2018-12-09T19:25:36.743Z,70.90
2018-12-09T19:28:06.987Z,70.68
2018-12-09T19:30:37.285Z,70.65
2018-12-09T19:33:07.569Z,70.85
2018-12-09T19:35:38.085Z,70.97
2018-12-09T19:38:08.407Z,70.99
2018-12-09T19:40:38.809Z,71.15
2018-12-09T19:43:09.149Z,70.15
2018-12-09T19:45:39.607Z,70.49
2018-12-09T19:48:09.875Z,71.13
2018-12-09T19:50:40.104Z,70.74
2018-12-09T19:53:10.437Z,71.01
2018-12-09T19:55:40.918Z,72.02
2018-12-09T19:58:11.148Z,71.96
2018-12-09T20:00:41.564Z,71.34
2018-12-09T20:03:11.958Z,71.45
2018-12-09T20:05:42.321Z,70.28
2018-12-09T20:08:12.753Z,70.60
2018-12-09T20:10:43.260Z,70.74
2018-12-09T20:13:13.522Z,70.88
2018-12-09T20:15:43.853Z,71.05
2018-12-09T20:18:14.178Z,71.30
2018-12-09T20:20:44.537Z,71.73
2018-12-09T20:23:14.853Z,71.66
2018-12-09T20:25:45.154Z,71.36
2018-12-09T20:28:15.608Z,71.95
2018-12-09T20:30:45.705Z,71.39
2018-12-09T20:33:15.902Z,71.87
2018-12-09T20:35:46.216Z,71.19
2018-12-09T20:38:16.524Z,70.91
2018-12-09T20:40:46.946Z,70.65
2018-12-09T20:43:17.295Z,70.52
2018-12-09T20:45:47.486Z,70.34
2018-12-09T20:48:17.765Z,70.61
2018-12-09T20:50:48.129Z,70.00
2018-12-09T20:53:18.372Z,69.86
2018-12-09T20:55:48.913Z,69.61
2018-12-09T20:58:19.224Z,69.40
2018-12-09T21:00:49.486Z,68.92
2018-12-09T21:03:19.916Z,68.82
2018-12-09T21:05:50.175Z,68.84
2018-12-09T21:08:20.443Z,69.11
2018-12-09T21:10:50.817Z,71.08
2018-12-09T21:13:20.954Z,71.00
2018-12-09T21:15:53.196Z,71.17
2018-12-09T21:18:23.478Z,71.76
2018-12-09T21:20:53.622Z,71.25
2018-12-09T21:23:23.955Z,70.75
2018-12-09T21:25:54.189Z,70.73
2018-12-09T21:28:24.472Z,70.83
2018-12-09T21:30:54.780Z,70.62
2018-12-09T21:33:24.948Z,71.01
2018-12-09T21:35:55.274Z,70.50
2018-12-09T21:38:25.661Z,71.24
2018-12-09T21:40:56.052Z,72.44
2018-12-09T21:43:26.320Z,72.64
2018-12-09T21:45:56.721Z,72.82
2018-12-09T21:48:26.986Z,73.18
2018-12-09T21:50:57.080Z,73.19
2018-12-09T21:53:27.370Z,73.34
2018-12-09T21:55:57.818Z,73.21
2018-12-09T21:58:28.087Z,73.26
2018-12-09T22:00:58.257Z,73.73
2018-12-09T22:03:28.408Z,72.73
2018-12-09T22:05:58.669Z,73.23
2018-12-09T22:08:29.024Z,73.15
2018-12-09T22:10:59.398Z,73.14
2018-12-09T22:13:29.753Z,71.47
2018-12-09T22:16:00.496Z,70.49
2018-12-09T22:18:30.778Z,71.30
2018-12-09T22:21:00.940Z,71.50
2018-12-09T22:23:32.156Z,71.16
2018-12-09T22:26:02.516Z,70.61
2018-12-09T22:28:32.776Z,71.05
2018-12-09T22:31:03.211Z,71.32
2018-12-09T22:33:33.295Z,71.16
2018-12-09T22:36:03.393Z,70.09
2018-12-09T22:38:33.527Z,70.10
2018-12-09T22:41:03.768Z,70.07
2018-12-09T22:43:34.374Z,70.21
2018-12-09T22:46:04.640Z,70.13
2018-12-09T22:48:35.396Z,70.04
2018-12-09T22:51:05.538Z,69.89
2018-12-09T22:53:35.935Z,71.15
2018-12-09T22:56:06.216Z,71.55
2018-12-09T22:58:36.450Z,71.62
2018-12-09T23:01:12.202Z,72.43
2018-12-09T23:03:42.236Z,72.30
2018-12-09T23:06:12.542Z,71.08
2018-12-09T23:08:42.988Z,70.84
2018-12-09T23:11:13.325Z,70.88
2018-12-09T23:13:43.508Z,71.34
2018-12-09T23:16:13.848Z,70.42
2018-12-09T23:18:44.008Z,71.23
2018-12-09T23:21:14.529Z,71.01
2018-12-09T23:23:44.683Z,70.56
2018-12-09T23:26:15.378Z,70.42
2018-12-09T23:28:45.710Z,70.28
2018-12-09T23:31:16.229Z,70.34
2018-12-09T23:33:46.484Z,69.86
2018-12-09T23:36:16.733Z,70.95
2018-12-09T23:38:46.960Z,71.19
2018-12-09T23:41:17.151Z,71.17
2018-12-09T23:43:47.464Z,71.33
2018-12-09T23:46:17.828Z,71.61
2018-12-09T23:48:48.097Z,71.38
2018-12-09T23:51:19.108Z,70.75
2018-12-09T23:53:49.383Z,70.96
2018-12-09T23:56:19.713Z,71.25
2018-12-09T23:58:50.024Z,71.37
